SCOT15 YBOK-YBOK
Flight info
| Callsign | SCOT15 |
|---|---|
| Flight time | 0h 8m |
| Altitude | 3500 |
| Route | DCT OK OK DCT |
| Aircraft | EC35/L-VGD/C |
Departure
| Time | 2026-04-20 05:07 |
|---|---|
| Airport | Oakey Army Aviation Centre (YBOK) |
Arrival
| Time | 2026-04-20 05:16 |
|---|---|
| Airport | Oakey Army Aviation Centre (YBOK) |
| Time | Latitude | Longitude | Altitude | Speed | Heading |
|---|---|---|---|---|---|
| 2026-04-20 04:58 | -27.41340 | 151.73512 | 1345 ft | 0 kts | 9° |
| 2026-04-20 05:05 | -27.41318 | 151.73491 | 1349 ft | 6 kts | 291° |
| 2026-04-20 05:05 | -27.41297 | 151.73452 | 1351 ft | 9 kts | 354° |
| 2026-04-20 05:06 | -27.41199 | 151.73462 | 1353 ft | 19 kts | 15° |
| 2026-04-20 05:06 | -27.41081 | 151.73503 | 1349 ft | 11 kts | 344° |
| 2026-04-20 05:06 | -27.41062 | 151.73452 | 1377 ft | 25 kts | 288° |
| 2026-04-20 05:06 | -27.40993 | 151.73082 | 1411 ft | 68 kts | 275° |
| 2026-04-20 05:07 | -27.40914 | 151.72476 | 1478 ft | 85 kts | 274° |
| 2026-04-20 05:07 | -27.40740 | 151.71848 | 1680 ft | 86 kts | 319° |
| 2026-04-20 05:07 | -27.40200 | 151.71944 | 1802 ft | 91 kts | 58° |
| 2026-04-20 05:07 | -27.40062 | 151.72591 | 2022 ft | 85 kts | 98° |
| 2026-04-20 05:08 | -27.40132 | 151.73264 | 2108 ft | 87 kts | 101° |
| 2026-04-20 05:08 | -27.40216 | 151.73975 | 2092 ft | 100 kts | 100° |
| 2026-04-20 05:08 | -27.40286 | 151.74819 | 2024 ft | 110 kts | 97° |
| 2026-04-20 05:08 | -27.40347 | 151.75701 | 1981 ft | 112 kts | 103° |
| 2026-04-20 05:09 | -27.40876 | 151.75914 | 2257 ft | 90 kts | 196° |
| 2026-04-20 05:09 | -27.41223 | 151.75357 | 2134 ft | 107 kts | 255° |
| 2026-04-20 05:09 | -27.41198 | 151.74437 | 1734 ft | 126 kts | 282° |
| 2026-04-20 05:09 | -27.41062 | 151.73443 | 1402 ft | 125 kts | 275° |
| 2026-04-20 05:10 | -27.40911 | 151.72543 | 1474 ft | 108 kts | 278° |
| 2026-04-20 05:10 | -27.40725 | 151.71767 | 1734 ft | 98 kts | 312° |
| 2026-04-20 05:10 | -27.40110 | 151.71853 | 1993 ft | 93 kts | 36° |
| 2026-04-20 05:10 | -27.39712 | 151.72405 | 2190 ft | 90 kts | 60° |
| 2026-04-20 05:11 | -27.39584 | 151.73178 | 2128 ft | 111 kts | 94° |
| 2026-04-20 05:11 | -27.39696 | 151.74024 | 2211 ft | 109 kts | 103° |
| 2026-04-20 05:11 | -27.39912 | 151.74881 | 2141 ft | 121 kts | 127° |
| 2026-04-20 05:11 | -27.40665 | 151.74948 | 2057 ft | 125 kts | 203° |
| 2026-04-20 05:12 | -27.41165 | 151.74214 | 1759 ft | 124 kts | 267° |
| 2026-04-20 05:12 | -27.41034 | 151.73296 | 1433 ft | 113 kts | 275° |
| 2026-04-20 05:12 | -27.40920 | 151.72534 | 1485 ft | 81 kts | 278° |
| 2026-04-20 05:12 | -27.40803 | 151.71975 | 1582 ft | 74 kts | 279° |
| 2026-04-20 05:13 | -27.40435 | 151.71658 | 1640 ft | 74 kts | 7° |
| 2026-04-20 05:13 | -27.40001 | 151.71908 | 1750 ft | 68 kts | 32° |
| 2026-04-20 05:13 | -27.39576 | 151.72269 | 1708 ft | 79 kts | 68° |
| 2026-04-20 05:13 | -27.39562 | 151.72891 | 1724 ft | 82 kts | 104° |
| 2026-04-20 05:14 | -27.39635 | 151.73504 | 1818 ft | 73 kts | 102° |
| 2026-04-20 05:14 | -27.39676 | 151.74022 | 1969 ft | 60 kts | 101° |
| 2026-04-20 05:14 | -27.39744 | 151.74461 | 2083 ft | 58 kts | 107° |
| 2026-04-20 05:14 | -27.39828 | 151.74938 | 2134 ft | 65 kts | 107° |
| 2026-04-20 05:15 | -27.40226 | 151.75231 | 1882 ft | 101 kts | 192° |
| 2026-04-20 05:15 | -27.40855 | 151.74850 | 1760 ft | 100 kts | 222° |
| 2026-04-20 05:15 | -27.41171 | 151.74155 | 1600 ft | 105 kts | 262° |
| 2026-04-20 05:15 | -27.41041 | 151.73416 | 1417 ft | 84 kts | 272° |
| 2026-04-20 05:16 | -27.40967 | 151.72832 | 1355 ft | 61 kts | 274° |
| 2026-04-20 05:16 | -27.40901 | 151.72479 | 1429 ft | 33 kts | 274° |
| 2026-04-20 05:16 | -27.40836 | 151.72243 | 1420 ft | 35 kts | 276° |
| 2026-04-20 05:16 | -27.40786 | 151.72006 | 1497 ft | 26 kts | 272° |
| 2026-04-20 05:17 | -27.40665 | 151.71777 | 1631 ft | 59 kts | 320° |
| 2026-04-20 05:17 | -27.40218 | 151.71727 | 1839 ft | 68 kts | 9° |
| 2026-04-20 05:17 | -27.39734 | 151.71931 | 1926 ft | 88 kts | 35° |
| 2026-04-20 05:17 | -27.39541 | 151.72567 | 2048 ft | 96 kts | 101° |
| 2026-04-20 05:18 | -27.39678 | 151.73361 | 2046 ft | 110 kts | 105° |
| 2026-04-20 05:18 | -27.39825 | 151.74244 | 1994 ft | 119 kts | 104° |
| 2026-04-20 05:18 | -27.39961 | 151.75146 | 2189 ft | 107 kts | 102° |
| 2026-04-20 05:18 | -27.40061 | 151.75917 | 2381 ft | 101 kts | 102° |
| 2026-04-20 05:19 | -27.40321 | 151.76763 | 2224 ft | 120 kts | 147° |
| 2026-04-20 05:19 | -27.41134 | 151.76635 | 2131 ft | 125 kts | 207° |
| 2026-04-20 05:19 | -27.41496 | 151.75736 | 1624 ft | 150 kts | 274° |
| 2026-04-20 05:19 | -27.41223 | 151.74661 | 1542 ft | 139 kts | 274° |
| 2026-04-20 05:20 | -27.41100 | 151.73716 | 1684 ft | 104 kts | 276° |
| 2026-04-20 05:20 | -27.40959 | 151.72899 | 1723 ft | 108 kts | 278° |
| 2026-04-20 05:20 | -27.40817 | 151.72033 | 1823 ft | 109 kts | 277° |
| 2026-04-20 05:20 | -27.40557 | 151.71231 | 1951 ft | 111 kts | 315° |
| 2026-04-20 05:21 | -27.39807 | 151.71132 | 2058 ft | 118 kts | 26° |
| 2026-04-20 05:21 | -27.39433 | 151.71918 | 2076 ft | 125 kts | 98° |
| 2026-04-20 05:21 | -27.39619 | 151.72871 | 2028 ft | 127 kts | 106° |
| 2026-04-20 05:21 | -27.39696 | 151.73811 | 2041 ft | 121 kts | 95° |
| 2026-04-20 05:22 | -27.39848 | 151.74764 | 2046 ft | 125 kts | 104° |
| 2026-04-20 05:22 | -27.40015 | 151.75720 | 2076 ft | 124 kts | 104° |
| 2026-04-20 05:22 | -27.40184 | 151.76671 | 2114 ft | 123 kts | 105° |
| 2026-04-20 05:22 | -27.40762 | 151.77157 | 2195 ft | 115 kts | 199° |
| 2026-04-20 05:23 | -27.41363 | 151.76543 | 2059 ft | 127 kts | 241° |
| 2026-04-20 05:23 | -27.41381 | 151.75536 | 1927 ft | 132 kts | 278° |
| 2026-04-20 05:23 | -27.41201 | 151.74525 | 1777 ft | 139 kts | 279° |
| 2026-04-20 05:23 | -27.41058 | 151.73499 | 1494 ft | 123 kts | 273° |
| 2026-04-20 05:24 | -27.40912 | 151.72640 | 1438 ft | 99 kts | 280° |
| 2026-04-20 05:24 | -27.40778 | 151.71914 | 1502 ft | 83 kts | 276° |
| 2026-04-20 05:24 | -27.40522 | 151.71434 | 1658 ft | 79 kts | 339° |
| 2026-04-20 05:24 | -27.39966 | 151.71610 | 1742 ft | 94 kts | 39° |
| 2026-04-20 05:25 | -27.39592 | 151.72264 | 1783 ft | 105 kts | 73° |
| 2026-04-20 05:25 | -27.39607 | 151.73091 | 1862 ft | 108 kts | 104° |
| 2026-04-20 05:25 | -27.39734 | 151.73928 | 1878 ft | 113 kts | 104° |
| 2026-04-20 05:25 | -27.39851 | 151.74804 | 1925 ft | 115 kts | 101° |
| 2026-04-20 05:26 | -27.39917 | 151.75668 | 1995 ft | 113 kts | 98° |
| 2026-04-20 05:26 | -27.40008 | 151.76522 | 2104 ft | 110 kts | 103° |
| 2026-04-20 05:26 | -27.40384 | 151.77226 | 2147 ft | 110 kts | 164° |
| 2026-04-20 05:26 | -27.41029 | 151.76903 | 1933 ft | 107 kts | 240° |
| 2026-04-20 05:27 | -27.41327 | 151.76157 | 1790 ft | 108 kts | 243° |
| 2026-04-20 05:27 | -27.41355 | 151.75376 | 1758 ft | 100 kts | 284° |
| 2026-04-20 05:27 | -27.41180 | 151.74622 | 1602 ft | 100 kts | 277° |
| 2026-04-20 05:27 | -27.41094 | 151.73900 | 1428 ft | 87 kts | 271° |
| 2026-04-20 05:28 | -27.41023 | 151.73224 | 1385 ft | 85 kts | 276° |
| 2026-04-20 05:28 | -27.40915 | 151.72554 | 1468 ft | 92 kts | 275° |
| 2026-04-20 05:28 | -27.40795 | 151.71799 | 1581 ft | 102 kts | 276° |
| 2026-04-20 05:28 | -27.40339 | 151.71231 | 1683 ft | 109 kts | 347° |
| 2026-04-20 05:29 | -27.39662 | 151.71564 | 1732 ft | 115 kts | 55° |
| 2026-04-20 05:29 | -27.39529 | 151.72400 | 1889 ft | 107 kts | 100° |
| 2026-04-20 05:29 | -27.39627 | 151.73212 | 1968 ft | 109 kts | 102° |
| 2026-04-20 05:29 | -27.39731 | 151.74079 | 1976 ft | 116 kts | 102° |
| 2026-04-20 05:30 | -27.39848 | 151.75010 | 1992 ft | 121 kts | 102° |
| 2026-04-20 05:30 | -27.39976 | 151.75958 | 1950 ft | 124 kts | 103° |
| 2026-04-20 05:30 | -27.40181 | 151.76866 | 2016 ft | 114 kts | 133° |
| 2026-04-20 05:30 | -27.40896 | 151.76920 | 2051 ft | 110 kts | 191° |
| 2026-04-20 05:31 | -27.41536 | 151.76590 | 2108 ft | 103 kts | 244° |
| 2026-04-20 05:31 | -27.41377 | 151.75772 | 1997 ft | 116 kts | 289° |
| 2026-04-20 05:31 | -27.41231 | 151.74877 | 1837 ft | 123 kts | 272° |
| 2026-04-20 05:31 | -27.41118 | 151.73847 | 1525 ft | 135 kts | 277° |
| 2026-04-20 05:32 | -27.40966 | 151.72865 | 1366 ft | 119 kts | 276° |
| 2026-04-20 05:32 | -27.40831 | 151.71955 | 1498 ft | 114 kts | 276° |
| 2026-04-20 05:32 | -27.40450 | 151.71288 | 1748 ft | 108 kts | 330° |
| 2026-04-20 05:32 | -27.39732 | 151.71350 | 1899 ft | 112 kts | 35° |
| 2026-04-20 05:33 | -27.39478 | 151.72157 | 1965 ft | 118 kts | 96° |
| 2026-04-20 05:33 | -27.39592 | 151.73086 | 1992 ft | 123 kts | 103° |
| 2026-04-20 05:33 | -27.39738 | 151.74057 | 1961 ft | 129 kts | 103° |
| 2026-04-20 05:33 | -27.39885 | 151.75062 | 1902 ft | 132 kts | 102° |
| 2026-04-20 05:34 | -27.40015 | 151.76098 | 1813 ft | 136 kts | 102° |
| 2026-04-20 05:34 | -27.40377 | 151.76983 | 1933 ft | 126 kts | 162° |
| 2026-04-20 05:34 | -27.41527 | 151.76149 | 1894 ft | 125 kts | 288° |
| 2026-04-20 05:35 | -27.41290 | 151.75196 | 1801 ft | 128 kts | 275° |
| 2026-04-20 05:35 | -27.41166 | 151.74183 | 1636 ft | 130 kts | 276° |
| 2026-04-20 05:35 | -27.41022 | 151.73229 | 1421 ft | 118 kts | 276° |
| 2026-04-20 05:35 | -27.40896 | 151.72393 | 1470 ft | 102 kts | 276° |
| 2026-04-20 05:36 | -27.40758 | 151.71583 | 1640 ft | 110 kts | 288° |
| 2026-04-20 05:36 | -27.40115 | 151.71185 | 1816 ft | 118 kts | 6° |
| 2026-04-20 05:36 | -27.39535 | 151.71810 | 1886 ft | 128 kts | 79° |
| 2026-04-20 05:36 | -27.39511 | 151.72814 | 1925 ft | 131 kts | 98° |
| 2026-04-20 05:37 | -27.39654 | 151.73812 | 1998 ft | 128 kts | 103° |
| 2026-04-20 05:37 | -27.39808 | 151.74798 | 2014 ft | 129 kts | 104° |
| 2026-04-20 05:37 | -27.39970 | 151.75819 | 1957 ft | 136 kts | 104° |
| 2026-04-20 05:37 | -27.40209 | 151.76836 | 2061 ft | 129 kts | 130° |
| 2026-04-20 05:38 | -27.41051 | 151.76959 | 2006 ft | 131 kts | 191° |
| 2026-04-20 05:38 | -27.41546 | 151.76373 | 1965 ft | 127 kts | 284° |
| 2026-04-20 05:38 | -27.41312 | 151.75372 | 1767 ft | 134 kts | 272° |
| 2026-04-20 05:38 | -27.41193 | 151.74311 | 1569 ft | 139 kts | 277° |
| 2026-04-20 05:39 | -27.41026 | 151.73279 | 1382 ft | 128 kts | 276° |
| 2026-04-20 05:39 | -27.40889 | 151.72304 | 1484 ft | 125 kts | 276° |
| 2026-04-20 05:39 | -27.40607 | 151.71474 | 1777 ft | 111 kts | 324° |
| 2026-04-20 05:39 | -27.39864 | 151.71500 | 1984 ft | 114 kts | 33° |
| 2026-04-20 05:40 | -27.39500 | 151.72288 | 2019 ft | 125 kts | 87° |
| 2026-04-20 05:40 | -27.39590 | 151.73291 | 2010 ft | 131 kts | 104° |
| 2026-04-20 05:40 | -27.39764 | 151.74308 | 2046 ft | 131 kts | 104° |
| 2026-04-20 05:40 | -27.39916 | 151.75315 | 2087 ft | 132 kts | 102° |
| 2026-04-20 05:41 | -27.40039 | 151.76356 | 2020 ft | 138 kts | 102° |
| 2026-04-20 05:41 | -27.40441 | 151.77263 | 2067 ft | 135 kts | 156° |
| 2026-04-20 05:41 | -27.41307 | 151.76952 | 1867 ft | 145 kts | 231° |
| 2026-04-20 05:41 | -27.41597 | 151.75854 | 1650 ft | 150 kts | 263° |
| 2026-04-20 05:42 | -27.41481 | 151.74721 | 1574 ft | 143 kts | 288° |
| 2026-04-20 05:42 | -27.41292 | 151.73935 | 1526 ft | 63 kts | 271° |
| 2026-04-20 05:42 | -27.41253 | 151.73684 | 1360 ft | 16 kts | 265° |
| 2026-04-20 05:42 | -27.41247 | 151.73620 | 1346 ft | 13 kts | 285° |
| 2026-04-20 05:43 | -27.41238 | 151.73543 | 1342 ft | 5 kts | 281° |
| 2026-04-20 05:43 | -27.41236 | 151.73530 | 1340 ft | 2 kts | 279° |
| 2026-04-20 05:43 | -27.41235 | 151.73529 | 1338 ft | 0 kts | 281° |
| 2026-04-20 05:46 | -27.41230 | 151.73495 | 1353 ft | 16 kts | 266° |
| 2026-04-20 05:46 | -27.41356 | 151.73459 | 1360 ft | 20 kts | 82° |
| 2026-04-20 05:46 | -27.41341 | 151.73512 | 1337 ft | 0 kts | 8° |